Oggi è lunedì 3 agosto 2020, 20:01

Bassano Romano (VT) ed il suo microclima

Curiosità e approfondimenti
 
Messaggi: 4
Iscritto il: martedì 15 settembre 2015, 17:37
Sesso: M
Luogo: bassano romano
Quota: 375 m s.l.m

Re: Bassano Romano (VT) ed il suo microclima

Messaggio da danielef1972 » venerdì 2 ottobre 2015, 19:57

a ripiove...... per la precisione
rate max 26 orari
e mo?......... :38: :38: :38: :38: :38:

Avatar utente
 
Messaggi: 1150
Iscritto il: lunedì 24 febbraio 2014, 13:44
Sesso: M
Luogo: Valle Muricana (Roma Nord)
Quota: 73 m s.l.m.

Re: Bassano Romano (VT) ed il suo microclima

Messaggio da clavero » venerdì 2 ottobre 2015, 20:03

mo pure cecato me volete fà?...io non mi invento nulla, guardo i fatti ...e questi stanno su internet

:shock: :shock: :shock:

Immagine

questo lo storico completo di ieri
http://www.wunderground.com/weatherstat ... y&format=1

Codice: Seleziona tutto
Time,TemperatureC,DewpointC,PressurehPa,WindDirection,WindDirectionDegrees,WindSpeedKMH,WindSpeedGustKMH,Humidity,HourlyPrecipMM,Conditions,Clouds,dailyrainMM,SoftwareType,DateUTC
2015-10-01 00:05:00,13.5,10.9,1016.8,Nord,-9999,-1608.8,-1607.4,84,0.5,,,1.0,Netatmo,2015-09-30 22:05:00,
2015-10-01 00:08:00,13.5,10.9,1016.8,Nord,-9999,-1608.8,-1607.4,84,0.5,,,0.0,Netatmo,2015-09-30 22:08:00,
2015-10-01 00:18:00,13.4,11.1,1016.8,Nord,-9999,-1608.8,-1607.4,86,0.5,,,0.3,Netatmo,2015-09-30 22:18:00,
2015-10-01 00:25:00,13.4,11.1,1016.8,Nord,-9999,-1608.8,-1607.4,86,0.5,,,0.3,Netatmo,2015-09-30 22:25:00,
2015-10-01 00:38:00,13.4,11.1,1016.8,Nord,-9999,-1608.8,-1607.4,86,0.5,,,0.3,Netatmo,2015-09-30 22:38:00,
2015-10-01 00:45:00,13.3,11.1,1016.8,Nord,-9999,-1608.8,-1607.4,86,0.5,,,0.3,Netatmo,2015-09-30 22:45:00,
2015-10-01 00:48:00,13.3,11.1,1016.8,Nord,-9999,-1608.8,-1607.4,86,0.5,,,0.5,Netatmo,2015-09-30 22:48:00,
2015-10-01 01:15:00,13.2,11.1,1016.8,Nord,-9999,-1608.8,-1607.4,87,0.3,,,0.5,Netatmo,2015-09-30 23:15:00,
2015-10-01 01:26:00,13.1,11.0,1016.5,Nord,-9999,-1608.8,-1607.4,87,0.3,,,0.5,Netatmo,2015-09-30 23:26:00,
2015-10-01 01:35:00,13.1,11.0,1016.8,Nord,-9999,-1608.8,-1607.4,87,0.0,,,0.5,Netatmo,2015-09-30 23:35:00,
2015-10-01 01:46:00,13.1,11.0,1016.5,Nord,-9999,-1608.8,-1607.4,87,0.0,,,0.5,Netatmo,2015-09-30 23:46:00,
2015-10-01 01:55:00,13.0,10.9,1016.8,Nord,-9999,-1608.8,-1607.4,87,0.0,,,0.5,Netatmo,2015-09-30 23:55:00,
2015-10-01 02:06:00,13.0,11.1,1016.5,Nord,-9999,-1608.8,-1607.4,88,0.0,,,0.5,Netatmo,2015-10-01 00:06:00,
2015-10-01 02:15:00,13.0,11.1,1016.5,Nord,-9999,-1608.8,-1607.4,88,0.0,,,0.5,Netatmo,2015-10-01 00:15:00,
2015-10-01 02:26:00,13.0,11.1,1016.5,Nord,-9999,-1608.8,-1607.4,88,0.0,,,0.5,Netatmo,2015-10-01 00:26:00,
2015-10-01 02:29:00,12.9,11.0,1016.8,Nord,-9999,-1608.8,-1607.4,88,0.0,,,0.5,Netatmo,2015-10-01 00:29:00,
2015-10-01 02:39:00,12.9,11.0,1016.8,Nord,-9999,-1608.8,-1607.4,88,0.0,,,0.5,Netatmo,2015-10-01 00:39:00,
2015-10-01 02:46:00,12.9,11.0,1016.8,Nord,-9999,-1608.8,-1607.4,88,0.0,,,0.5,Netatmo,2015-10-01 00:46:00,
2015-10-01 02:49:00,12.8,10.7,1016.5,Nord,-9999,-1608.8,-1607.4,87,0.0,,,0.5,Netatmo,2015-10-01 00:49:00,
2015-10-01 02:59:00,12.8,10.9,1016.5,Nord,-9999,-1608.8,-1607.4,88,0.0,,,0.5,Netatmo,2015-10-01 00:59:00,
2015-10-01 03:10:00,12.8,10.9,1016.5,Nord,-9999,-1608.8,-1607.4,88,0.0,,,0.5,Netatmo,2015-10-01 01:10:00,
2015-10-01 03:20:00,12.8,10.9,1016.5,Nord,-9999,-1608.8,-1607.4,88,0.0,,,0.5,Netatmo,2015-10-01 01:20:00,
2015-10-01 03:30:00,12.8,10.9,1016.5,Nord,-9999,-1608.8,-1607.4,88,0.0,,,0.5,Netatmo,2015-10-01 01:30:00,
2015-10-01 03:40:00,12.8,10.9,1016.1,Nord,-9999,-1608.8,-1607.4,88,0.0,,,0.5,Netatmo,2015-10-01 01:40:00,
2015-10-01 03:59:00,12.7,10.8,1016.1,Nord,-9999,-1608.8,-1607.4,88,0.3,,,0.8,Netatmo,2015-10-01 01:59:00,
2015-10-01 04:05:00,12.7,10.8,1016.1,Nord,-9999,-1608.8,-1607.4,88,0.3,,,0.8,Netatmo,2015-10-01 02:05:00,
2015-10-01 04:09:00,12.7,10.8,1016.1,Nord,-9999,-1608.8,-1607.4,88,0.5,,,0.8,Netatmo,2015-10-01 02:09:00,
2015-10-01 04:16:00,12.7,10.8,1016.1,Nord,-9999,-1608.8,-1607.4,88,0.5,,,0.8,Netatmo,2015-10-01 02:16:00,
2015-10-01 04:19:00,12.6,10.8,1016.1,Nord,-9999,-1608.8,-1607.4,89,0.5,,,1.0,Netatmo,2015-10-01 02:19:00,
2015-10-01 04:29:00,12.6,10.7,1016.1,Nord,-9999,-1608.8,-1607.4,88,0.5,,,1.0,Netatmo,2015-10-01 02:29:00,
2015-10-01 04:39:00,12.5,10.8,1016.1,Nord,-9999,-1608.8,-1607.4,89,0.5,,,1.0,Netatmo,2015-10-01 02:39:00,
2015-10-01 04:49:00,12.5,10.8,1015.8,Nord,-9999,-1608.8,-1607.4,89,0.5,,,1.0,Netatmo,2015-10-01 02:49:00,
2015-10-01 05:00:00,12.5,10.9,1015.8,Nord,-9999,-1608.8,-1607.4,90,0.5,,,1.3,Netatmo,2015-10-01 03:00:00,
2015-10-01 05:10:00,12.4,10.8,1015.8,Nord,-9999,-1608.8,-1607.4,90,0.5,,,1.5,Netatmo,2015-10-01 03:10:00,
2015-10-01 05:20:00,12.4,10.8,1015.5,Nord,-9999,-1608.8,-1607.4,90,0.8,,,1.8,Netatmo,2015-10-01 03:20:00,
2015-10-01 05:30:00,12.3,10.7,1015.5,Nord,-9999,-1608.8,-1607.4,90,1.0,,,2.0,Netatmo,2015-10-01 03:30:00,
2015-10-01 05:40:00,12.3,10.7,1015.1,Nord,-9999,-1608.8,-1607.4,90,1.0,,,2.3,Netatmo,2015-10-01 03:40:00,
2015-10-01 05:50:00,12.3,10.9,1015.1,Nord,-9999,-1608.8,-1607.4,91,1.0,,,2.3,Netatmo,2015-10-01 03:50:00,
2015-10-01 06:00:00,12.2,10.8,1014.8,Nord,-9999,-1608.8,-1607.4,91,1.3,,,2.5,Netatmo,2015-10-01 04:00:00,
2015-10-01 06:10:00,12.2,10.9,1014.8,Nord,-9999,-1608.8,-1607.4,92,1.3,,,3.0,Netatmo,2015-10-01 04:10:00,
2015-10-01 06:20:00,12.2,10.9,1014.8,Nord,-9999,-1608.8,-1607.4,92,1.3,,,3.3,Netatmo,2015-10-01 04:20:00,
2015-10-01 06:31:00,12.2,10.9,1014.8,Nord,-9999,-1608.8,-1607.4,92,1.3,,,3.6,Netatmo,2015-10-01 04:31:00,
2015-10-01 06:41:00,12.2,10.9,1014.8,Nord,-9999,-1608.8,-1607.4,92,1.3,,,3.6,Netatmo,2015-10-01 04:41:00,
2015-10-01 06:51:00,12.2,11.1,1014.8,Nord,-9999,-1608.8,-1607.4,93,1.5,,,3.8,Netatmo,2015-10-01 04:51:00,
2015-10-01 07:01:00,12.2,11.1,1014.8,Nord,-9999,-1608.8,-1607.4,93,1.3,,,4.1,Netatmo,2015-10-01 05:01:00,
2015-10-01 07:11:00,12.2,11.1,1014.4,Nord,-9999,-1608.8,-1607.4,93,1.0,,,4.1,Netatmo,2015-10-01 05:11:00,
2015-10-01 07:21:00,12.2,11.1,1014.4,Nord,-9999,-1608.8,-1607.4,93,1.0,,,4.3,Netatmo,2015-10-01 05:21:00,
2015-10-01 07:31:00,12.2,10.9,1014.8,Nord,-9999,-1608.8,-1607.4,92,1.0,,,4.6,Netatmo,2015-10-01 05:31:00,
2015-10-01 07:41:00,12.2,10.9,1014.8,Nord,-9999,-1608.8,-1607.4,92,1.0,,,4.8,Netatmo,2015-10-01 05:41:00,
2015-10-01 07:51:00,12.2,11.1,1014.4,Nord,-9999,-1608.8,-1607.4,93,1.0,,,4.8,Netatmo,2015-10-01 05:51:00,
2015-10-01 08:01:00,12.2,11.1,1014.4,Nord,-9999,-1608.8,-1607.4,93,1.0,,,5.1,Netatmo,2015-10-01 06:01:00,
2015-10-01 08:12:00,12.2,11.1,1014.4,Nord,-9999,-1608.8,-1607.4,93,1.0,,,5.1,Netatmo,2015-10-01 06:12:00,
2015-10-01 08:22:00,12.3,11.2,1014.4,Nord,-9999,-1608.8,-1607.4,93,1.0,,,5.3,Netatmo,2015-10-01 06:22:00,
2015-10-01 08:32:00,12.3,11.1,1014.4,Nord,-9999,-1608.8,-1607.4,92,1.0,,,5.6,Netatmo,2015-10-01 06:32:00,
2015-10-01 08:42:00,12.3,11.2,1014.8,Nord,-9999,-1608.8,-1607.4,93,1.0,,,5.8,Netatmo,2015-10-01 06:42:00,
2015-10-01 08:52:00,12.4,11.3,1014.8,Nord,-9999,-1608.8,-1607.4,93,1.3,,,6.3,Netatmo,2015-10-01 06:52:00,
2015-10-01 09:02:00,12.6,11.5,1014.8,Nord,-9999,-1608.8,-1607.4,93,1.3,,,6.3,Netatmo,2015-10-01 07:02:00,
2015-10-01 09:12:00,12.7,11.6,1014.8,Nord,-9999,-1608.8,-1607.4,93,1.3,,,6.6,Netatmo,2015-10-01 07:12:00,
2015-10-01 09:22:00,12.7,11.4,1014.8,Nord,-9999,-1608.8,-1607.4,92,1.0,,,6.6,Netatmo,2015-10-01 07:22:00,
2015-10-01 09:32:00,12.8,11.6,1015.1,Nord,-9999,-1608.8,-1607.4,92,0.8,,,6.6,Netatmo,2015-10-01 07:32:00,
2015-10-01 09:43:00,12.8,11.6,1015.1,Nord,-9999,-1608.8,-1607.4,92,1.0,,,7.4,Netatmo,2015-10-01 07:43:00,
2015-10-01 09:53:00,12.8,11.6,1014.8,Nord,-9999,-1608.8,-1607.4,92,1.3,,,7.6,Netatmo,2015-10-01 07:53:00,
2015-10-01 10:03:00,13.0,11.7,1015.1,Nord,-9999,-1608.8,-1607.4,92,1.3,,,7.6,Netatmo,2015-10-01 08:03:00,
2015-10-01 10:13:00,13.1,11.8,1014.8,Nord,-9999,-1608.8,-1607.4,92,1.0,,,7.9,Netatmo,2015-10-01 08:13:00,
2015-10-01 10:23:00,13.5,12.2,1014.8,Nord,-9999,-1608.8,-1607.4,92,1.0,,,7.9,Netatmo,2015-10-01 08:23:00,
2015-10-01 10:33:00,13.7,12.3,1015.1,Nord,-9999,-1608.8,-1607.4,91,1.0,,,7.9,Netatmo,2015-10-01 08:33:00,
2015-10-01 10:53:00,13.7,11.9,1015.1,Nord,-9999,-1608.8,-1607.4,89,0.0,,,7.9,Netatmo,2015-10-01 08:53:00,
2015-10-01 11:03:00,13.6,11.8,1015.1,Nord,-9999,-1608.8,-1607.4,89,0.0,,,7.9,Netatmo,2015-10-01 09:03:00,
2015-10-01 11:13:00,13.5,11.7,1015.1,Nord,-9999,-1608.8,-1607.4,89,0.0,,,7.9,Netatmo,2015-10-01 09:13:00,
2015-10-01 11:24:00,13.5,11.9,1015.1,Nord,-9999,-1608.8,-1607.4,90,0.0,,,7.9,Netatmo,2015-10-01 09:24:00,
2015-10-01 11:34:00,13.4,11.8,1015.1,Nord,-9999,-1608.8,-1607.4,90,0.0,,,7.9,Netatmo,2015-10-01 09:34:00,
2015-10-01 11:44:00,13.4,11.8,1015.1,Nord,-9999,-1608.8,-1607.4,90,0.0,,,7.9,Netatmo,2015-10-01 09:44:00,
2015-10-01 11:54:00,13.5,12.1,1015.1,Nord,-9999,-1608.8,-1607.4,91,0.0,,,7.9,Netatmo,2015-10-01 09:54:00,
2015-10-01 12:04:00,13.5,12.1,1015.1,Nord,-9999,-1608.8,-1607.4,91,0.0,,,7.9,Netatmo,2015-10-01 10:04:00,
2015-10-01 12:14:00,13.5,12.1,1015.1,Nord,-9999,-1608.8,-1607.4,91,0.0,,,7.9,Netatmo,2015-10-01 10:14:00,
2015-10-01 12:24:00,13.6,12.3,1015.1,Nord,-9999,-1608.8,-1607.4,92,0.0,,,7.9,Netatmo,2015-10-01 10:24:00,
2015-10-01 12:34:00,13.7,12.3,1015.1,Nord,-9999,-1608.8,-1607.4,91,0.0,,,7.9,Netatmo,2015-10-01 10:34:00,
2015-10-01 12:47:00,13.8,12.4,1015.5,Nord,-9999,-1608.8,-1607.4,91,0.3,,,8.1,Netatmo,2015-10-01 10:47:00,
2015-10-01 12:55:00,13.8,12.4,1015.5,Nord,-9999,-1608.8,-1607.4,91,0.3,,,8.1,Netatmo,2015-10-01 10:55:00,
2015-10-01 12:57:00,13.8,12.4,1015.5,Nord,-9999,-1608.8,-1607.4,91,0.5,,,8.4,Netatmo,2015-10-01 10:57:00,
2015-10-01 13:15:00,13.8,12.6,1015.5,Nord,-9999,-1608.8,-1607.4,92,0.5,,,8.4,Netatmo,2015-10-01 11:15:00,
2015-10-01 13:17:00,13.9,12.6,1015.5,Nord,-9999,-1608.8,-1607.4,92,0.8,,,8.6,Netatmo,2015-10-01 11:17:00,
2015-10-01 13:35:00,14.1,12.8,1015.5,Nord,-9999,-1608.8,-1607.4,92,1.0,,,8.9,Netatmo,2015-10-01 11:35:00,
2015-10-01 13:47:00,14.1,12.8,1015.1,Nord,-9999,-1608.8,-1607.4,92,1.5,,,9.7,Netatmo,2015-10-01 11:47:00,
2015-10-01 13:55:00,14.1,12.8,1015.1,Nord,-9999,-1608.8,-1607.4,92,1.5,,,9.7,Netatmo,2015-10-01 11:55:00,
2015-10-01 14:07:00,14.1,12.8,1015.1,Nord,-9999,-1608.8,-1607.4,92,1.5,,,9.9,Netatmo,2015-10-01 12:07:00,
2015-10-01 14:08:00,14.1,13.0,1015.1,Nord,-9999,-1608.8,-1607.4,93,1.8,,,10.2,Netatmo,2015-10-01 12:08:00,
2015-10-01 14:15:00,14.1,13.0,1015.1,Nord,-9999,-1608.8,-1607.4,93,1.8,,,10.2,Netatmo,2015-10-01 12:15:00,
2015-10-01 14:26:00,14.1,13.0,1015.5,Nord,-9999,-1608.8,-1607.4,93,1.8,,,10.4,Netatmo,2015-10-01 12:26:00,
2015-10-01 14:28:00,14.1,13.0,1015.5,Nord,-9999,-1608.8,-1607.4,93,1.5,,,10.4,Netatmo,2015-10-01 12:28:00,
2015-10-01 14:35:00,14.1,13.0,1015.5,Nord,-9999,-1608.8,-1607.4,93,1.5,,,10.4,Netatmo,2015-10-01 12:35:00,
2015-10-01 14:48:00,14.1,13.0,1015.5,Nord,-9999,-1608.8,-1607.4,93,1.0,,,10.4,Netatmo,2015-10-01 12:48:00,
2015-10-01 14:55:00,14.2,13.1,1015.5,Nord,-9999,-1608.8,-1607.4,93,0.5,,,10.4,Netatmo,2015-10-01 12:55:00,
2015-10-01 14:58:00,14.2,13.1,1015.1,Nord,-9999,-1608.8,-1607.4,93,0.5,,,10.4,Netatmo,2015-10-01 12:58:00,
2015-10-01 15:05:00,14.2,13.1,1015.1,Nord,-9999,-1608.8,-1607.4,93,0.5,,,10.4,Netatmo,2015-10-01 13:05:00,
2015-10-01 15:08:00,14.2,13.3,1015.1,Nord,-9999,-1608.8,-1607.4,94,0.5,,,10.7,Netatmo,2015-10-01 13:08:00,
2015-10-01 15:18:00,14.2,13.3,1015.1,Nord,-9999,-1608.8,-1607.4,94,0.5,,,10.9,Netatmo,2015-10-01 13:18:00,
2015-10-01 15:25:00,14.2,13.3,1015.1,Nord,-9999,-1608.8,-1607.4,94,0.5,,,10.9,Netatmo,2015-10-01 13:25:00,
2015-10-01 15:29:00,14.2,13.3,1015.1,Nord,-9999,-1608.8,-1607.4,94,0.5,,,10.9,Netatmo,2015-10-01 13:29:00,
2015-10-01 15:39:00,14.1,13.2,1015.1,Nord,-9999,-1608.8,-1607.4,94,0.5,,,10.9,Netatmo,2015-10-01 13:39:00,
2015-10-01 15:45:00,14.1,13.2,1015.1,Nord,-9999,-1608.8,-1607.4,94,0.5,,,10.9,Netatmo,2015-10-01 13:45:00,
2015-10-01 15:49:00,14.1,13.2,1015.5,Nord,-9999,-1608.8,-1607.4,94,1.0,,,11.4,Netatmo,2015-10-01 13:49:00,
2015-10-01 16:15:00,14.1,13.3,1015.5,Nord,-9999,-1608.8,-1607.4,95,1.3,,,11.9,Netatmo,2015-10-01 14:15:00,
2015-10-01 16:19:00,14.1,13.3,1015.5,Nord,-9999,-1608.8,-1607.4,95,1.3,,,12.2,Netatmo,2015-10-01 14:19:00,
2015-10-01 16:28:00,14.1,13.3,1015.5,Nord,-9999,-1608.8,-1607.4,95,1.5,,,12.2,Netatmo,2015-10-01 14:28:00,
2015-10-01 16:29:00,14.0,13.2,1015.5,Nord,-9999,-1608.8,-1607.4,95,1.5,,,12.4,Netatmo,2015-10-01 14:29:00,
2015-10-01 16:39:00,14.0,13.2,1015.5,Nord,-9999,-1608.8,-1607.4,95,1.0,,,12.4,Netatmo,2015-10-01 14:39:00,
2015-10-01 16:50:00,14.0,13.2,1015.5,Nord,-9999,-1608.8,-1607.4,95,0.8,,,12.4,Netatmo,2015-10-01 14:50:00,
2015-10-01 17:00:00,14.1,13.3,1015.5,Nord,-9999,-1608.8,-1607.4,95,0.5,,,12.7,Netatmo,2015-10-01 15:00:00,
2015-10-01 17:10:00,14.1,13.3,1015.5,Nord,-9999,-1608.8,-1607.4,95,0.5,,,12.7,Netatmo,2015-10-01 15:10:00,
2015-10-01 17:20:00,14.1,13.5,1015.1,Nord,-9999,-1608.8,-1607.4,96,0.5,,,13.0,Netatmo,2015-10-01 15:20:00,
2015-10-01 17:30:00,14.1,13.5,1015.1,Nord,-9999,-1608.8,-1607.4,96,0.5,,,13.0,Netatmo,2015-10-01 15:30:00,
2015-10-01 17:40:00,14.1,13.5,1015.1,Nord,-9999,-1608.8,-1607.4,96,0.5,,,13.0,Netatmo,2015-10-01 15:40:00,
2015-10-01 17:50:00,14.0,13.2,1015.5,Nord,-9999,-1608.8,-1607.4,95,0.5,,,13.0,Netatmo,2015-10-01 15:50:00,
2015-10-01 18:21:00,14.0,13.2,1015.5,Nord,-9999,-1608.8,-1607.4,95,0.3,,,13.2,Netatmo,2015-10-01 16:21:00,
2015-10-01 18:31:00,13.9,13.1,1015.5,Nord,-9999,-1608.8,-1607.4,95,0.0,,,13.2,Netatmo,2015-10-01 16:31:00,
2015-10-01 18:41:00,13.9,13.3,1015.5,Nord,-9999,-1608.8,-1607.4,96,0.0,,,13.2,Netatmo,2015-10-01 16:41:00,
2015-10-01 19:01:00,13.8,13.2,1015.5,Nord,-9999,-1608.8,-1607.4,96,0.0,,,13.2,Netatmo,2015-10-01 17:01:00,
2015-10-01 19:11:00,13.7,13.1,1015.5,Nord,-9999,-1608.8,-1607.4,96,0.0,,,13.2,Netatmo,2015-10-01 17:11:00,
2015-10-01 19:21:00,13.6,13.0,1015.5,Nord,-9999,-1608.8,-1607.4,96,0.0,,,13.2,Netatmo,2015-10-01 17:21:00,
2015-10-01 19:31:00,13.6,13.0,1015.8,Nord,-9999,-1608.8,-1607.4,96,0.0,,,13.2,Netatmo,2015-10-01 17:31:00,
2015-10-01 19:41:00,13.6,13.0,1015.8,Nord,-9999,-1608.8,-1607.4,96,0.0,,,13.2,Netatmo,2015-10-01 17:41:00,
2015-10-01 19:51:00,13.6,13.0,1015.5,Nord,-9999,-1608.8,-1607.4,96,0.0,,,13.2,Netatmo,2015-10-01 17:51:00,
2015-10-01 20:02:00,13.6,13.0,1015.8,Nord,-9999,-1608.8,-1607.4,96,0.0,,,13.2,Netatmo,2015-10-01 18:02:00,
2015-10-01 20:12:00,13.6,13.0,1015.8,Nord,-9999,-1608.8,-1607.4,96,0.0,,,13.2,Netatmo,2015-10-01 18:12:00,
2015-10-01 20:22:00,13.6,13.0,1015.8,Nord,-9999,-1608.8,-1607.4,96,0.0,,,13.2,Netatmo,2015-10-01 18:22:00,
2015-10-01 20:32:00,13.6,13.0,1015.8,Nord,-9999,-1608.8,-1607.4,96,0.0,,,13.2,Netatmo,2015-10-01 18:32:00,
2015-10-01 20:42:00,13.7,13.1,1015.8,Nord,-9999,-1608.8,-1607.4,96,0.0,,,13.2,Netatmo,2015-10-01 18:42:00,
2015-10-01 20:52:00,13.7,13.1,1015.8,Nord,-9999,-1608.8,-1607.4,96,0.0,,,13.2,Netatmo,2015-10-01 18:52:00,
2015-10-01 21:02:00,13.6,13.0,1015.8,Nord,-9999,-1608.8,-1607.4,96,0.0,,,13.2,Netatmo,2015-10-01 19:02:00,
2015-10-01 21:12:00,13.6,13.0,1015.5,Nord,-9999,-1608.8,-1607.4,96,0.0,,,13.2,Netatmo,2015-10-01 19:12:00,
2015-10-01 21:23:00,13.6,13.0,1015.8,Nord,-9999,-1608.8,-1607.4,96,0.0,,,13.2,Netatmo,2015-10-01 19:23:00,
2015-10-01 21:33:00,13.7,13.1,1015.5,Nord,-9999,-1608.8,-1607.4,96,0.0,,,13.2,Netatmo,2015-10-01 19:33:00,
2015-10-01 21:43:00,13.6,13.0,1015.5,Nord,-9999,-1608.8,-1607.4,96,0.0,,,13.2,Netatmo,2015-10-01 19:43:00,
2015-10-01 21:53:00,13.5,12.9,1015.5,Nord,-9999,-1608.8,-1607.4,96,0.0,,,13.2,Netatmo,2015-10-01 19:53:00,
2015-10-01 22:03:00,13.4,12.8,1015.5,Nord,-9999,-1608.8,-1607.4,96,0.0,,,13.2,Netatmo,2015-10-01 20:03:00,
2015-10-01 22:13:00,13.4,12.8,1015.5,Nord,-9999,-1608.8,-1607.4,96,0.0,,,13.2,Netatmo,2015-10-01 20:13:00,
2015-10-01 22:23:00,13.3,12.7,1015.5,Nord,-9999,-1608.8,-1607.4,96,0.0,,,13.2,Netatmo,2015-10-01 20:23:00,
2015-10-01 22:33:00,13.4,12.9,1015.5,Nord,-9999,-1608.8,-1607.4,97,0.0,,,13.2,Netatmo,2015-10-01 20:33:00,
2015-10-01 22:43:00,13.4,12.9,1015.5,Nord,-9999,-1608.8,-1607.4,97,0.0,,,13.2,Netatmo,2015-10-01 20:43:00,
2015-10-01 22:54:00,13.4,12.9,1015.5,Nord,-9999,-1608.8,-1607.4,97,0.0,,,13.2,Netatmo,2015-10-01 20:54:00,
2015-10-01 23:04:00,13.4,12.8,1015.5,Nord,-9999,-1608.8,-1607.4,96,0.0,,,13.2,Netatmo,2015-10-01 21:04:00,
2015-10-01 23:14:00,13.4,12.8,1015.5,Nord,-9999,-1608.8,-1607.4,96,0.0,,,13.2,Netatmo,2015-10-01 21:14:00,
2015-10-01 23:24:00,13.4,12.8,1015.5,Nord,-9999,-1608.8,-1607.4,96,0.0,,,13.2,Netatmo,2015-10-01 21:24:00,
2015-10-01 23:34:00,13.3,12.7,1015.5,Nord,-9999,-1608.8,-1607.4,96,0.0,,,13.2,Netatmo,2015-10-01 21:34:00,
2015-10-01 23:44:00,13.1,12.5,1015.5,Nord,-9999,-1608.8,-1607.4,96,0.0,,,13.2,Netatmo,2015-10-01 21:44:00,
2015-10-01 23:54:00,13.1,12.5,1015.5,Nord,-9999,-1608.8,-1607.4,96,0.0,,,13.2,Netatmo,2015-10-01 21:54:00,


http://www.wunderground.com/personal-we ... 001/mdaily
Meteo Valle Muricana (Roma Nord)
www.vallemuricana.it

Avatar utente
 
Messaggi: 1150
Iscritto il: lunedì 24 febbraio 2014, 13:44
Sesso: M
Luogo: Valle Muricana (Roma Nord)
Quota: 73 m s.l.m.

Re: Bassano Romano (VT) ed il suo microclima

Messaggio da clavero » venerdì 2 ottobre 2015, 20:18

danielef1972 ha scritto:vedo che ancora c'è dell ironia sui nostri dati
le conclusioni le tiro sig. clavero hai preso un grosso abbaglio
allora per essere precisi ieri giuseppe ha accumulato 18.2 mm
io 18 mm
oggi giuseppe ha accumulato 29.7 mm
io 29.5 mm
era solo per precisare visto che leggo dati diversi dalla realtà
io vorrei sapere qual'è il problema?
VI rode tanto sapere che a bassano piove di più



quì nessuno stà negando che a bassano piove più di tutti, anzi....il problema è quanto di più?...se la tua stazione accumula 4-6mm in più ogni 20-30mm, se fino ad oggi mettiamo caso ha piovuto 50 giorni, ecco che escono fuori i 300mm in più rispetto ad altre zone vicine. NON è possibile una differenza del genere, non esiste l'amazzonia e dopo 3km il deserto, xchè è questo il paragone

:139:
Meteo Valle Muricana (Roma Nord)
www.vallemuricana.it

 
Messaggi: 47
Iscritto il: lunedì 20 ottobre 2014, 23:17
Sesso: M
Luogo: Bassano Romano / Roma
Quota: 385 m s.l.m.

Re: Bassano Romano (VT) ed il suo microclima

Messaggio da Tramontana » venerdì 2 ottobre 2015, 20:23

Che te posso di...
Ti mando lo screenshot che ho mandato
Ieri sera su wapp. Può confermare Extreme visto
Che è nel gruppo.
Questa è l'app netatmo.
Ora è ripiovuto. Alla mia i mm sono diventati 32.9
Allegati
IMG_20151002_202208.jpg
IMG_20151002_202208.jpg (140.15 KiB) Osservato 255 volte

Avatar utente
 
Messaggi: 1150
Iscritto il: lunedì 24 febbraio 2014, 13:44
Sesso: M
Luogo: Valle Muricana (Roma Nord)
Quota: 73 m s.l.m.

Re: Bassano Romano (VT) ed il suo microclima

Messaggio da clavero » venerdì 2 ottobre 2015, 20:35

Tramontana ha scritto:Che te posso di...
Ti mando lo screenshot che ho mandato
Ieri sera su wapp. Può confermare Extreme visto
Che è nel gruppo.
Questa è l'app netatmo.
Ora è ripiovuto. Alla mia i mm sono diventati 32.9


quindi su wu dati tutti errati?. :death1: :death1: :death1: ....strano xchè vedendo le altre su rete netatmo e wu sono allineati

la cosa strana è che appena hai letto il mio mex, la stazione è sparita da online :38: :38: :102: :shock:
Meteo Valle Muricana (Roma Nord)
www.vallemuricana.it

 
Messaggi: 47
Iscritto il: lunedì 20 ottobre 2014, 23:17
Sesso: M
Luogo: Bassano Romano / Roma
Quota: 385 m s.l.m.

Re: Bassano Romano (VT) ed il suo microclima

Messaggio da Tramontana » venerdì 2 ottobre 2015, 20:54

Scusami sei ridicolo....
Ma ti credi intelligente più degli altri?
Me sembri lo Sherlock dei poveracci...
Sai solo lanciare il sassolino...
Cmq non ti permetto di insinuare niente. Ho messo lo screenshot di ieri sera . Lorenzo lo confermerà...Quello è...punto e basta.
Saranno sbagliati tutti i dati di wunderground...
Sempre se è la mia...io non ce l'ho messa su wunderground. L'ho tolta la stazione perché i dati mi servono a me quando sono fuori casa.

Non ho tutto sto tempo da perdere...fortunatamente
Con queste stupidaggini. Penso sia da malati di mente nascondere le stazioni per 3 mm come hai insinuato.
O forse è più da malati pensarlo.

Ah il tuo discorso sopra. Oggi 33 mm, intorno 16mm. La stazione non sovrastima di 4 mm su 20 mm ma di 17 su 16 mm...buah.

 
Messaggi: 4
Iscritto il: martedì 15 settembre 2015, 17:37
Sesso: M
Luogo: bassano romano
Quota: 375 m s.l.m

Re: Bassano Romano (VT) ed il suo microclima

Messaggio da danielef1972 » venerdì 2 ottobre 2015, 20:57

quì nessuno stà negando che a bassano piove più di tutti, anzi....il problema è quanto di più?...se la tua stazione accumula 4-6mm in più ogni 20-30mm, se fino ad oggi mettiamo caso ha piovuto 50 giorni, ecco che escono fuori i 300mm in più rispetto ad altre zone vicine. NON è possibile una differenza del genere, non esiste l'amazzonia e dopo 3km il deserto, xchè è questo il paragone

:139:[/quote]

ah.... mo calcoli pure quanto piove esattamente a bassano....?
una persona normale la prima cosa che chiederebbe è se ho mai fatto paragone con il manuale
invece tu gia dai per scontato che la mia sovrastima di 4/6mm ......però...
ma visto che ogni volta che piove io controllo sempre il manuale e mi da sempre 05mm/1 mm di più della davis
ecco che con 50 giorni di pioggia la davis mi perde 50 mm
come la mettiamo?
allora oggi che la davis ha accumulato 33 mm secondo i tuoi calcoli sono 25?
solo la tua stazione è perfetta
se non ti vabene che la mia stazione è online la puoi anche togliere
così vivi più tranquillamente e non rischi che te se rovina il fegato

Avatar utente
 
Messaggi: 1150
Iscritto il: lunedì 24 febbraio 2014, 13:44
Sesso: M
Luogo: Valle Muricana (Roma Nord)
Quota: 73 m s.l.m.

Re: Bassano Romano (VT) ed il suo microclima

Messaggio da clavero » venerdì 2 ottobre 2015, 21:23

gomblotto :lol: :lol: :lol: :lol:

vabbè va, dopo questa chiudo quì....


:139: :139: :139:
Meteo Valle Muricana (Roma Nord)
www.vallemuricana.it

Avatar utente
 
Messaggi: 4769
Iscritto il: martedì 23 settembre 2014, 10:09
Sesso: M
Luogo: Roma (San Giovanni); Soriano nel Cimino, Loc. La Macchieta
Quota: 50/454 m s.l.m.

Re: Bassano Romano (VT) ed il suo microclima

Messaggio da Olim » sabato 3 ottobre 2015, 7:18

Va beh ragazzi, penso che così non si possa proprio continuare!! La discussione ha assunto toni grotteschi. Da moderatore non voglio e non posso assegnare le responsabilità di questa deriva. Constato il fatto!
Qui si deve discutere di meteorologia, di dati, di passione, di climatologia, di tutto quello che vogliamo, volete, ma non c'è spazio per sospetti, illazioni, né per risposte stizzite o discussioni infruttuose.

Stavolta tutto è partito da un dato letto su wunderground evidentemente errato (o di altra stazione? questo non l'ho capito).

Bastava chiarirsi sull'erroneità di quel dato e finiva lì. Mica era complicato!

Si è però creata proprio psicologicamente una spirale di botta e risposta che non porta a nulla. E la ragione sta nel fatto che da una parte magari si usa un modo di esprimersi che lascia (magari anche a torto, ma tant è) trapelare un senso di "sospetto" e dall'altra si risponde per le rime a questo atteggiamento interpretato come "sospettoso".

Quindi ormai è un corto circuito.

Siccome però siamo in un forum meteo, se volete chiarirvi civilmente tra di voi con altri mezzi spiegandovi reciprocamente qual è il punto di incomprensione (come si fa tra persone adulte) fatelo pure e ne sarò più che contento.
Qui evidentemente non ci sono i margini per continuare una discussione meteo fruttuosa.

Per rispetto di chi scrive qui mi voglio limitare a moderare solo "parole fuori da regolamento" e lascerò i messaggi scritti.

Vi invito però a chiudere la discussione, sempre che non cambino radicalmente (in meglio) i termini su cui si sta basando.

Da parte mia e a nome di tutto il Direttivo di Cemer, ribadisco soltanto il nostro esclusivo interesse a discutere di meteo, clima, passione e quant'altro, senza stizze, senza sospetti con la libertà di critica ovviamente, ma con i toni e i modi giusti (nel criticare e nel rispondere).

E aggiungo: la Stazione di Bassano di Daniele per noi non è affatto in discussione. Il fatto di monitorare l'andamento di un pluviometro e di ogni altro parametro è cosa comune a tutte le stazioni. La stazione è perfettamente ubicata e nessuno (NESSUNO) la vuole togliere, mettere in discussione o denigrare. Un conto è discutere un dato per verificarne l'esattezza (cosa che si fa con tutte le stazioni), cosa legittima (sui modi poi possiamo discutere!!).
Altra cosa è mettere in discussione: 1) la correttezza di chi i dati li rileva e riporta (cosa mai fatta!!!!) 2) la bontà dell'installazione di Bassano come ubicazione e messa a norma (è una delle migliori stazioni della rete SENZA OMBRA DI DUBBIO).

Chiarito questo e chiarita la posizione del Direttivo di CEMER sulla questione, aggiungo che qualsiasi altro messaggio di contenuto polemico o mal posto d'ora in poi verrà cancellato. ;) Ben vengano invece discussioni costruttive su dati, clima e ogni altra questione inerente alla METEO!!!
Lorenzo Dorato, alias Olim
Stagionofilo puro con preferenza viscerale per l'inverno, il freddo e la neve. Amante di ogni fenomeno, dalla pioggia copiosa al caldo intenso, dalla limpida tramontana alla nebbia novembrina, dai temporali al vento burrascoso.

Precedente

Torna a Climatologia

Chi c’è in linea

Visitano il forum: Nessuno e 1 ospite